sensor_id;sensor_type;location;lat;lon;timestamp;temperature;humidity
36990;DHT22;22898;52.102;5.776;2024-03-02T00:00:21;12.40;99.90
36990;DHT22;22898;52.102;5.776;2024-03-02T00:02:50;12.40;99.90
36990;DHT22;22898;52.102;5.776;2024-03-02T00:05:18;12.50;99.90
36990;DHT22;22898;52.102;5.776;2024-03-02T00:07:45;12.70;99.90
36990;DHT22;22898;52.102;5.776;2024-03-02T00:10:20;13.20;99.90
36990;DHT22;22898;52.102;5.776;2024-03-02T00:12:48;13.10;99.90
36990;DHT22;22898;52.102;5.776;2024-03-02T00:15:46;13.20;99.90
36990;DHT22;22898;52.102;5.776;2024-03-02T00:18:15;13.30;99.90
36990;DHT22;22898;52.102;5.776;2024-03-02T00:20:41;12.90;99.90
36990;DHT22;22898;52.102;5.776;2024-03-02T00:23:09;12.90;99.90
36990;DHT22;22898;52.102;5.776;2024-03-02T00:25:47;12.80;99.90
36990;DHT22;22898;52.102;5.776;2024-03-02T00:28:19;12.60;99.90
36990;DHT22;22898;52.102;5.776;2024-03-02T00:30:58;12.80;99.90
36990;DHT22;22898;52.102;5.776;2024-03-02T00:33:27;13.10;99.90
36990;DHT22;22898;52.102;5.776;2024-03-02T00:35:56;13.30;99.90
36990;DHT22;22898;52.102;5.776;2024-03-02T00:38:22;13.40;99.90
36990;DHT22;22898;52.102;5.776;2024-03-02T00:40:47;13.10;99.90
36990;DHT22;22898;52.102;5.776;2024-03-02T00:45:54;13.50;99.90
36990;DHT22;22898;52.102;5.776;2024-03-02T00:48:20;13.20;99.90
36990;DHT22;22898;52.102;5.776;2024-03-02T00:50:46;13.60;99.90
36990;DHT22;22898;52.102;5.776;2024-03-02T00:53:12;13.90;99.90
36990;DHT22;22898;52.102;5.776;2024-03-02T00:55:38;14.00;99.90
36990;DHT22;22898;52.102;5.776;2024-03-02T00:58:05;13.70;99.90
36990;DHT22;22898;52.102;5.776;2024-03-02T01:00:30;13.80;99.90
36990;DHT22;22898;52.102;5.776;2024-03-02T01:02:56;14.20;99.90
36990;DHT22;22898;52.102;5.776;2024-03-02T01:05:21;14.60;99.90
36990;DHT22;22898;52.102;5.776;2024-03-02T01:07:47;14.60;99.90
36990;DHT22;22898;52.102;5.776;2024-03-02T01:10:13;14.20;99.90
36990;DHT22;22898;52.102;5.776;2024-03-02T01:12:38;14.00;99.90
36990;DHT22;22898;52.102;5.776;2024-03-02T01:15:05;14.10;99.90
36990;DHT22;22898;52.102;5.776;2024-03-02T01:17:33;14.00;99.90
36990;DHT22;22898;52.102;5.776;2024-03-02T01:19:59;14.00;99.90
36990;DHT22;22898;52.102;5.776;2024-03-02T01:22:24;13.80;99.90
36990;DHT22;22898;52.102;5.776;2024-03-02T01:24:51;14.00;99.90
36990;DHT22;22898;52.102;5.776;2024-03-02T01:27:16;14.40;99.90
36990;DHT22;22898;52.102;5.776;2024-03-02T01:29:42;14.50;99.90
36990;DHT22;22898;52.102;5.776;2024-03-02T01:32:08;14.80;99.90
36990;DHT22;22898;52.102;5.776;2024-03-02T01:34:33;14.80;99.90
36990;DHT22;22898;52.102;5.776;2024-03-02T01:36:59;14.90;99.90
36990;DHT22;22898;52.102;5.776;2024-03-02T01:39:24;14.90;99.90
36990;DHT22;22898;52.102;5.776;2024-03-02T01:41:50;14.60;99.90
36990;DHT22;22898;52.102;5.776;2024-03-02T01:44:16;14.80;99.90
36990;DHT22;22898;52.102;5.776;2024-03-02T01:46:42;14.60;99.90
36990;DHT22;22898;52.102;5.776;2024-03-02T01:49:08;14.50;99.90
36990;DHT22;22898;52.102;5.776;2024-03-02T01:51:33;14.50;99.90
36990;DHT22;22898;52.102;5.776;2024-03-02T01:53:59;14.50;99.90
36990;DHT22;22898;52.102;5.776;2024-03-02T01:56:25;14.30;99.90
36990;DHT22;22898;52.102;5.776;2024-03-02T01:58:50;14.30;99.90
36990;DHT22;22898;52.102;5.776;2024-03-02T02:01:16;14.30;99.90
36990;DHT22;22898;52.102;5.776;2024-03-02T02:03:43;14.30;99.90
36990;DHT22;22898;52.102;5.776;2024-03-02T02:06:09;14.50;99.90
36990;DHT22;22898;52.102;5.776;2024-03-02T02:08:37;14.40;99.90
36990;DHT22;22898;52.102;5.776;2024-03-02T02:11:03;14.90;99.90
36990;DHT22;22898;52.102;5.776;2024-03-02T02:13:28;15.30;99.90
36990;DHT22;22898;52.102;5.776;2024-03-02T02:15:54;14.90;99.90
36990;DHT22;22898;52.102;5.776;2024-03-02T02:18:20;14.60;99.90
36990;DHT22;22898;52.102;5.776;2024-03-02T02:20:46;14.70;99.90
36990;DHT22;22898;52.102;5.776;2024-03-02T02:23:11;14.90;99.90
36990;DHT22;22898;52.102;5.776;2024-03-02T02:25:38;15.10;99.90
36990;DHT22;22898;52.102;5.776;2024-03-02T02:28:04;15.30;99.90
36990;DHT22;22898;52.102;5.776;2024-03-02T02:30:31;15.20;99.90
36990;DHT22;22898;52.102;5.776;2024-03-02T02:32:57;15.00;99.90
36990;DHT22;22898;52.102;5.776;2024-03-02T02:35:23;14.90;99.90
36990;DHT22;22898;52.102;5.776;2024-03-02T02:37:56;15.00;99.90
36990;DHT22;22898;52.102;5.776;2024-03-02T02:40:22;15.00;99.90
36990;DHT22;22898;52.102;5.776;2024-03-02T02:42:48;15.10;99.90
36990;DHT22;22898;52.102;5.776;2024-03-02T02:45:13;15.10;99.90
36990;DHT22;22898;52.102;5.776;2024-03-02T02:47:41;15.20;99.90
36990;DHT22;22898;52.102;5.776;2024-03-02T02:50:10;15.00;99.90
36990;DHT22;22898;52.102;5.776;2024-03-02T02:52:37;15.20;99.90
36990;DHT22;22898;52.102;5.776;2024-03-02T02:55:06;15.00;99.90
36990;DHT22;22898;52.102;5.776;2024-03-02T02:57:36;14.90;99.90
36990;DHT22;22898;52.102;5.776;2024-03-02T03:00:11;15.20;99.90
36990;DHT22;22898;52.102;5.776;2024-03-02T03:02:40;15.40;99.90
36990;DHT22;22898;52.102;5.776;2024-03-02T03:05:10;15.30;99.90
36990;DHT22;22898;52.102;5.776;2024-03-02T03:07:37;15.40;99.90
36990;DHT22;22898;52.102;5.776;2024-03-02T03:10:04;15.40;99.90
36990;DHT22;22898;52.102;5.776;2024-03-02T03:12:33;15.20;99.90
36990;DHT22;22898;52.102;5.776;2024-03-02T03:14:59;15.00;99.90
36990;DHT22;22898;52.102;5.776;2024-03-02T03:17:26;14.70;99.90
36990;DHT22;22898;52.102;5.776;2024-03-02T03:19:51;14.80;99.90
36990;DHT22;22898;52.102;5.776;2024-03-02T03:22:17;14.90;99.90
36990;DHT22;22898;52.102;5.776;2024-03-02T03:24:43;14.90;99.90
36990;DHT22;22898;52.102;5.776;2024-03-02T03:27:09;15.20;99.90
36990;DHT22;22898;52.102;5.776;2024-03-02T03:29:36;14.90;99.90
36990;DHT22;22898;52.102;5.776;2024-03-02T03:32:02;14.90;99.90
36990;DHT22;22898;52.102;5.776;2024-03-02T03:34:27;14.90;99.90
36990;DHT22;22898;52.102;5.776;2024-03-02T03:36:54;15.10;99.90
36990;DHT22;22898;52.102;5.776;2024-03-02T03:39:20;15.10;99.90
36990;DHT22;22898;52.102;5.776;2024-03-02T03:41:48;15.20;99.90
36990;DHT22;22898;52.102;5.776;2024-03-02T03:44:14;14.90;99.90
36990;DHT22;22898;52.102;5.776;2024-03-02T03:46:40;14.70;99.90
36990;DHT22;22898;52.102;5.776;2024-03-02T03:49:05;14.80;99.90
36990;DHT22;22898;52.102;5.776;2024-03-02T03:51:31;14.90;99.90
36990;DHT22;22898;52.102;5.776;2024-03-02T03:53:56;15.00;99.90
36990;DHT22;22898;52.102;5.776;2024-03-02T03:56:22;14.80;99.90
36990;DHT22;22898;52.102;5.776;2024-03-02T03:58:47;15.00;99.90
36990;DHT22;22898;52.102;5.776;2024-03-02T04:01:13;15.10;99.90
36990;DHT22;22898;52.102;5.776;2024-03-02T04:03:39;15.10;99.90
36990;DHT22;22898;52.102;5.776;2024-03-02T04:06:04;14.70;99.90
36990;DHT22;22898;52.102;5.776;2024-03-02T04:08:30;14.80;99.90
36990;DHT22;22898;52.102;5.776;2024-03-02T04:10:56;15.00;99.90
36990;DHT22;22898;52.102;5.776;2024-03-02T04:13:22;15.20;99.90
36990;DHT22;22898;52.102;5.776;2024-03-02T04:15:47;15.30;99.90
36990;DHT22;22898;52.102;5.776;2024-03-02T04:18:13;15.50;99.90
36990;DHT22;22898;52.102;5.776;2024-03-02T04:20:39;15.00;99.90
36990;DHT22;22898;52.102;5.776;2024-03-02T04:23:04;14.80;99.90
36990;DHT22;22898;52.102;5.776;2024-03-02T04:25:30;14.90;99.90
36990;DHT22;22898;52.102;5.776;2024-03-02T04:27:55;15.00;99.90
36990;DHT22;22898;52.102;5.776;2024-03-02T04:30:21;15.10;99.90
36990;DHT22;22898;52.102;5.776;2024-03-02T04:32:46;15.20;99.90
36990;DHT22;22898;52.102;5.776;2024-03-02T04:35:13;15.20;99.90
36990;DHT22;22898;52.102;5.776;2024-03-02T04:37:39;15.10;99.90
36990;DHT22;22898;52.102;5.776;2024-03-02T04:40:05;15.00;99.90
36990;DHT22;22898;52.102;5.776;2024-03-02T04:42:34;14.90;99.90
36990;DHT22;22898;52.102;5.776;2024-03-02T04:45:00;14.90;99.90
36990;DHT22;22898;52.102;5.776;2024-03-02T04:47:26;15.10;99.90
36990;DHT22;22898;52.102;5.776;2024-03-02T04:49:51;15.10;99.90
36990;DHT22;22898;52.102;5.776;2024-03-02T04:52:17;15.00;99.90
36990;DHT22;22898;52.102;5.776;2024-03-02T04:54:43;15.00;99.90
36990;DHT22;22898;52.102;5.776;2024-03-02T04:57:27;14.90;99.90
36990;DHT22;22898;52.102;5.776;2024-03-02T04:59:53;14.90;99.90
36990;DHT22;22898;52.102;5.776;2024-03-02T05:02:18;14.70;99.90
36990;DHT22;22898;52.102;5.776;2024-03-02T05:04:44;14.70;99.90
36990;DHT22;22898;52.102;5.776;2024-03-02T05:07:10;14.90;99.90
36990;DHT22;22898;52.102;5.776;2024-03-02T05:09:35;14.90;99.90
36990;DHT22;22898;52.102;5.776;2024-03-02T05:12:01;15.00;99.90
36990;DHT22;22898;52.102;5.776;2024-03-02T05:14:41;15.00;99.90
36990;DHT22;22898;52.102;5.776;2024-03-02T05:17:07;14.70;99.90
36990;DHT22;22898;52.102;5.776;2024-03-02T05:19:33;14.50;99.90
36990;DHT22;22898;52.102;5.776;2024-03-02T05:21:58;14.40;99.90
36990;DHT22;22898;52.102;5.776;2024-03-02T05:24:24;14.40;99.90
36990;DHT22;22898;52.102;5.776;2024-03-02T05:26:52;14.50;99.90
36990;DHT22;22898;52.102;5.776;2024-03-02T05:29:18;14.50;99.90
36990;DHT22;22898;52.102;5.776;2024-03-02T05:31:44;14.40;99.90
36990;DHT22;22898;52.102;5.776;2024-03-02T05:34:09;14.50;99.90
36990;DHT22;22898;52.102;5.776;2024-03-02T05:36:35;14.50;99.90
36990;DHT22;22898;52.102;5.776;2024-03-02T05:39:01;14.60;99.90
36990;DHT22;22898;52.102;5.776;2024-03-02T05:41:27;14.60;99.90
36990;DHT22;22898;52.102;5.776;2024-03-02T05:43:53;14.60;99.90
36990;DHT22;22898;52.102;5.776;2024-03-02T05:46:18;14.70;99.90
36990;DHT22;22898;52.102;5.776;2024-03-02T05:48:44;14.70;99.90
36990;DHT22;22898;52.102;5.776;2024-03-02T05:51:10;14.70;99.90
36990;DHT22;22898;52.102;5.776;2024-03-02T05:53:36;14.70;99.90
36990;DHT22;22898;52.102;5.776;2024-03-02T05:56:04;14.60;99.90
36990;DHT22;22898;52.102;5.776;2024-03-02T05:58:31;14.70;99.90
36990;DHT22;22898;52.102;5.776;2024-03-02T06:01:16;14.50;99.90
36990;DHT22;22898;52.102;5.776;2024-03-02T06:03:43;14.50;99.90
36990;DHT22;22898;52.102;5.776;2024-03-02T06:06:09;14.50;99.90
36990;DHT22;22898;52.102;5.776;2024-03-02T06:08:34;14.30;99.90
36990;DHT22;22898;52.102;5.776;2024-03-02T06:11:00;14.20;99.90
36990;DHT22;22898;52.102;5.776;2024-03-02T06:13:26;14.00;99.90
36990;DHT22;22898;52.102;5.776;2024-03-02T06:15:52;14.10;99.90
36990;DHT22;22898;52.102;5.776;2024-03-02T06:18:17;14.40;99.90
36990;DHT22;22898;52.102;5.776;2024-03-02T06:20:43;14.50;99.90
36990;DHT22;22898;52.102;5.776;2024-03-02T06:23:09;14.40;99.90
36990;DHT22;22898;52.102;5.776;2024-03-02T06:25:34;14.40;99.90
36990;DHT22;22898;52.102;5.776;2024-03-02T06:28:00;14.30;99.90
36990;DHT22;22898;52.102;5.776;2024-03-02T06:30:26;14.40;99.90
36990;DHT22;22898;52.102;5.776;2024-03-02T06:32:51;14.50;99.90
36990;DHT22;22898;52.102;5.776;2024-03-02T06:35:17;14.50;99.90
36990;DHT22;22898;52.102;5.776;2024-03-02T06:37:43;14.70;99.90
36990;DHT22;22898;52.102;5.776;2024-03-02T06:40:08;14.80;99.90
36990;DHT22;22898;52.102;5.776;2024-03-02T06:42:35;14.80;99.90
36990;DHT22;22898;52.102;5.776;2024-03-02T06:45:02;14.80;99.90
36990;DHT22;22898;52.102;5.776;2024-03-02T06:47:28;14.60;99.90
36990;DHT22;22898;52.102;5.776;2024-03-02T06:49:53;14.50;99.90
36990;DHT22;22898;52.102;5.776;2024-03-02T06:52:19;14.40;99.90
36990;DHT22;22898;52.102;5.776;2024-03-02T06:54:46;14.40;99.90
36990;DHT22;22898;52.102;5.776;2024-03-02T06:57:12;14.50;99.90
36990;DHT22;22898;52.102;5.776;2024-03-02T06:59:37;14.50;99.90
36990;DHT22;22898;52.102;5.776;2024-03-02T07:02:03;14.60;99.90
36990;DHT22;22898;52.102;5.776;2024-03-02T07:04:29;14.60;99.90
36990;DHT22;22898;52.102;5.776;2024-03-02T07:06:54;14.70;99.90
36990;DHT22;22898;52.102;5.776;2024-03-02T07:09:20;14.80;99.90
36990;DHT22;22898;52.102;5.776;2024-03-02T07:11:48;14.90;99.90
36990;DHT22;22898;52.102;5.776;2024-03-02T07:14:14;14.90;99.90
36990;DHT22;22898;52.102;5.776;2024-03-02T07:16:40;14.70;99.90
36990;DHT22;22898;52.102;5.776;2024-03-02T07:19:08;14.80;99.90
36990;DHT22;22898;52.102;5.776;2024-03-02T07:21:34;14.90;99.90
36990;DHT22;22898;52.102;5.776;2024-03-02T07:24:00;14.90;99.90
36990;DHT22;22898;52.102;5.776;2024-03-02T07:26:28;15.00;99.90
36990;DHT22;22898;52.102;5.776;2024-03-02T07:28:55;14.90;99.90
36990;DHT22;22898;52.102;5.776;2024-03-02T07:31:21;14.90;99.90
36990;DHT22;22898;52.102;5.776;2024-03-02T07:33:46;15.10;99.90
36990;DHT22;22898;52.102;5.776;2024-03-02T07:36:12;14.90;99.90
36990;DHT22;22898;52.102;5.776;2024-03-02T07:38:38;14.50;99.90
36990;DHT22;22898;52.102;5.776;2024-03-02T07:41:04;14.50;99.90
36990;DHT22;22898;52.102;5.776;2024-03-02T07:43:30;14.40;99.90
36990;DHT22;22898;52.102;5.776;2024-03-02T07:45:57;14.10;99.90
36990;DHT22;22898;52.102;5.776;2024-03-02T07:48:23;14.10;99.90
36990;DHT22;22898;52.102;5.776;2024-03-02T07:50:48;14.30;99.90
36990;DHT22;22898;52.102;5.776;2024-03-02T07:53:14;14.40;99.90
36990;DHT22;22898;52.102;5.776;2024-03-02T07:55:40;14.80;99.90
36990;DHT22;22898;52.102;5.776;2024-03-02T07:58:06;14.90;99.90
36990;DHT22;22898;52.102;5.776;2024-03-02T08:00:32;15.00;99.90
36990;DHT22;22898;52.102;5.776;2024-03-02T08:02:58;14.70;99.90
36990;DHT22;22898;52.102;5.776;2024-03-02T08:05:24;14.90;99.90
36990;DHT22;22898;52.102;5.776;2024-03-02T08:07:49;14.90;99.90
36990;DHT22;22898;52.102;5.776;2024-03-02T08:10:18;14.90;99.90
36990;DHT22;22898;52.102;5.776;2024-03-02T08:12:44;15.20;99.90
36990;DHT22;22898;52.102;5.776;2024-03-02T08:15:11;15.40;99.90
36990;DHT22;22898;52.102;5.776;2024-03-02T08:17:39;14.90;99.90
36990;DHT22;22898;52.102;5.776;2024-03-02T08:20:11;15.00;99.90
36990;DHT22;22898;52.102;5.776;2024-03-02T08:22:36;14.40;99.90
36990;DHT22;22898;52.102;5.776;2024-03-02T08:25:02;14.50;99.90
36990;DHT22;22898;52.102;5.776;2024-03-02T08:27:28;14.70;99.90
36990;DHT22;22898;52.102;5.776;2024-03-02T08:29:54;14.80;99.90
36990;DHT22;22898;52.102;5.776;2024-03-02T08:32:19;14.80;99.90
36990;DHT22;22898;52.102;5.776;2024-03-02T08:34:45;14.80;99.90
36990;DHT22;22898;52.102;5.776;2024-03-02T08:37:11;14.80;99.90
36990;DHT22;22898;52.102;5.776;2024-03-02T08:39:37;14.70;99.90
36990;DHT22;22898;52.102;5.776;2024-03-02T08:42:02;15.00;99.90
36990;DHT22;22898;52.102;5.776;2024-03-02T08:44:30;15.10;99.90
36990;DHT22;22898;52.102;5.776;2024-03-02T08:46:55;15.50;99.90
36990;DHT22;22898;52.102;5.776;2024-03-02T08:49:21;15.30;99.90
36990;DHT22;22898;52.102;5.776;2024-03-02T08:51:47;15.40;99.90
36990;DHT22;22898;52.102;5.776;2024-03-02T08:54:22;15.10;99.90
36990;DHT22;22898;52.102;5.776;2024-03-02T08:56:49;14.90;99.90
36990;DHT22;22898;52.102;5.776;2024-03-02T08:59:15;14.80;99.90
36990;DHT22;22898;52.102;5.776;2024-03-02T09:01:41;14.70;99.90
36990;DHT22;22898;52.102;5.776;2024-03-02T09:04:07;14.50;99.90
36990;DHT22;22898;52.102;5.776;2024-03-02T09:06:36;14.50;99.90
36990;DHT22;22898;52.102;5.776;2024-03-02T09:09:02;14.80;99.90
36990;DHT22;22898;52.102;5.776;2024-03-02T09:11:28;15.00;99.90
36990;DHT22;22898;52.102;5.776;2024-03-02T09:13:54;14.80;99.90
36990;DHT22;22898;52.102;5.776;2024-03-02T09:16:21;14.80;99.90
36990;DHT22;22898;52.102;5.776;2024-03-02T09:18:47;14.80;99.90
36990;DHT22;22898;52.102;5.776;2024-03-02T09:21:12;14.80;99.90
36990;DHT22;22898;52.102;5.776;2024-03-02T09:23:38;14.80;99.90
36990;DHT22;22898;52.102;5.776;2024-03-02T09:26:05;14.80;99.90
36990;DHT22;22898;52.102;5.776;2024-03-02T09:28:31;15.20;99.90
36990;DHT22;22898;52.102;5.776;2024-03-02T09:30:56;14.90;99.90
36990;DHT22;22898;52.102;5.776;2024-03-02T09:33:22;14.50;99.90
36990;DHT22;22898;52.102;5.776;2024-03-02T09:35:47;14.30;99.90
36990;DHT22;22898;52.102;5.776;2024-03-02T09:38:14;14.30;99.90
36990;DHT22;22898;52.102;5.776;2024-03-02T09:40:41;14.10;99.90
36990;DHT22;22898;52.102;5.776;2024-03-02T09:43:07;14.20;99.90
36990;DHT22;22898;52.102;5.776;2024-03-02T09:45:33;14.50;99.90
36990;DHT22;22898;52.102;5.776;2024-03-02T09:47:59;14.70;99.90
36990;DHT22;22898;52.102;5.776;2024-03-02T09:50:25;14.40;99.90
36990;DHT22;22898;52.102;5.776;2024-03-02T09:52:51;14.50;99.90
36990;DHT22;22898;52.102;5.776;2024-03-02T09:55:18;14.90;99.90
36990;DHT22;22898;52.102;5.776;2024-03-02T09:57:45;14.90;99.90
36990;DHT22;22898;52.102;5.776;2024-03-02T10:00:12;15.30;99.90
36990;DHT22;22898;52.102;5.776;2024-03-02T10:02:40;15.50;99.90
36990;DHT22;22898;52.102;5.776;2024-03-02T10:05:10;15.20;99.90
36990;DHT22;22898;52.102;5.776;2024-03-02T10:07:35;15.40;99.90
36990;DHT22;22898;52.102;5.776;2024-03-02T10:10:13;15.20;99.90
36990;DHT22;22898;52.102;5.776;2024-03-02T10:12:39;15.10;99.90
36990;DHT22;22898;52.102;5.776;2024-03-02T10:15:05;15.70;99.90
36990;DHT22;22898;52.102;5.776;2024-03-02T10:17:34;16.00;99.90
36990;DHT22;22898;52.102;5.776;2024-03-02T10:19:59;16.10;99.90
36990;DHT22;22898;52.102;5.776;2024-03-02T10:22:45;16.50;99.90
36990;DHT22;22898;52.102;5.776;2024-03-02T10:25:33;16.30;99.90
36990;DHT22;22898;52.102;5.776;2024-03-02T10:27:59;16.20;99.90
36990;DHT22;22898;52.102;5.776;2024-03-02T10:30:26;16.30;99.90
36990;DHT22;22898;52.102;5.776;2024-03-02T10:32:53;16.50;99.90
36990;DHT22;22898;52.102;5.776;2024-03-02T10:35:23;16.20;99.90
36990;DHT22;22898;52.102;5.776;2024-03-02T10:37:49;15.70;99.90
36990;DHT22;22898;52.102;5.776;2024-03-02T10:40:15;15.70;99.90
36990;DHT22;22898;52.102;5.776;2024-03-02T10:42:42;15.70;99.90
36990;DHT22;22898;52.102;5.776;2024-03-02T10:45:09;16.00;99.90
36990;DHT22;22898;52.102;5.776;2024-03-02T10:47:36;16.30;99.90
36990;DHT22;22898;52.102;5.776;2024-03-02T10:50:04;15.80;99.90
36990;DHT22;22898;52.102;5.776;2024-03-02T10:52:35;16.00;99.90
36990;DHT22;22898;52.102;5.776;2024-03-02T10:55:01;16.00;99.90
36990;DHT22;22898;52.102;5.776;2024-03-02T10:57:30;16.10;99.90
36990;DHT22;22898;52.102;5.776;2024-03-02T11:00:02;15.80;99.90
36990;DHT22;22898;52.102;5.776;2024-03-02T11:02:30;16.30;99.90
36990;DHT22;22898;52.102;5.776;2024-03-02T11:04:56;16.30;99.60
36990;DHT22;22898;52.102;5.776;2024-03-02T11:07:26;16.60;99.60
36990;DHT22;22898;52.102;5.776;2024-03-02T11:10:00;16.50;98.70
36990;DHT22;22898;52.102;5.776;2024-03-02T11:15:17;16.10;98.40
36990;DHT22;22898;52.102;5.776;2024-03-02T11:17:44;16.50;97.90
36990;DHT22;22898;52.102;5.776;2024-03-02T11:20:11;16.70;98.10
36990;DHT22;22898;52.102;5.776;2024-03-02T11:22:38;16.90;97.70
36990;DHT22;22898;52.102;5.776;2024-03-02T11:25:04;17.30;97.30
36990;DHT22;22898;52.102;5.776;2024-03-02T11:32:59;17.80;96.90
36990;DHT22;22898;52.102;5.776;2024-03-02T11:35:27;17.60;97.50
36990;DHT22;22898;52.102;5.776;2024-03-02T11:37:56;17.40;97.20
36990;DHT22;22898;52.102;5.776;2024-03-02T11:40:27;17.40;96.60
36990;DHT22;22898;52.102;5.776;2024-03-02T11:42:53;17.30;96.40
36990;DHT22;22898;52.102;5.776;2024-03-02T11:45:24;17.20;96.10
36990;DHT22;22898;52.102;5.776;2024-03-02T11:47:57;16.80;96.20
36990;DHT22;22898;52.102;5.776;2024-03-02T11:50:29;16.70;96.30
36990;DHT22;22898;52.102;5.776;2024-03-02T11:52:56;16.90;95.70
36990;DHT22;22898;52.102;5.776;2024-03-02T11:55:25;17.10;95.10
36990;DHT22;22898;52.102;5.776;2024-03-02T11:57:52;17.60;94.80
36990;DHT22;22898;52.102;5.776;2024-03-02T12:00:19;17.40;94.90
36990;DHT22;22898;52.102;5.776;2024-03-02T12:02:46;17.60;94.40
36990;DHT22;22898;52.102;5.776;2024-03-02T12:05:16;17.60;94.20
36990;DHT22;22898;52.102;5.776;2024-03-02T12:07:42;17.70;94.10
36990;DHT22;22898;52.102;5.776;2024-03-02T12:10:09;17.80;94.40
36990;DHT22;22898;52.102;5.776;2024-03-02T12:12:34;18.30;94.10
36990;DHT22;22898;52.102;5.776;2024-03-02T12:15:00;17.90;94.70
36990;DHT22;22898;52.102;5.776;2024-03-02T12:17:26;17.90;95.30
36990;DHT22;22898;52.102;5.776;2024-03-02T12:19:52;17.90;95.10
36990;DHT22;22898;52.102;5.776;2024-03-02T12:22:18;18.00;95.20
36990;DHT22;22898;52.102;5.776;2024-03-02T12:24:44;18.10;94.70
36990;DHT22;22898;52.102;5.776;2024-03-02T12:27:15;17.80;94.80
36990;DHT22;22898;52.102;5.776;2024-03-02T12:29:41;17.50;95.10
36990;DHT22;22898;52.102;5.776;2024-03-02T12:32:06;17.60;94.80
36990;DHT22;22898;52.102;5.776;2024-03-02T12:34:32;17.40;94.40
36990;DHT22;22898;52.102;5.776;2024-03-02T12:36:58;17.60;94.70
36990;DHT22;22898;52.102;5.776;2024-03-02T12:39:24;17.40;93.70
36990;DHT22;22898;52.102;5.776;2024-03-02T12:41:52;17.30;94.30
36990;DHT22;22898;52.102;5.776;2024-03-02T12:44:19;17.40;94.40
36990;DHT22;22898;52.102;5.776;2024-03-02T12:46:46;17.80;93.60
36990;DHT22;22898;52.102;5.776;2024-03-02T12:49:13;18.30;93.40
36990;DHT22;22898;52.102;5.776;2024-03-02T12:51:40;18.50;92.40
36990;DHT22;22898;52.102;5.776;2024-03-02T12:54:07;18.60;91.50
36990;DHT22;22898;52.102;5.776;2024-03-02T12:56:33;18.90;90.80
36990;DHT22;22898;52.102;5.776;2024-03-02T12:58:59;19.00;91.60
36990;DHT22;22898;52.102;5.776;2024-03-02T13:01:25;18.50;91.70
36990;DHT22;22898;52.102;5.776;2024-03-02T13:03:52;18.00;92.00
36990;DHT22;22898;52.102;5.776;2024-03-02T13:06:19;17.90;92.10
36990;DHT22;22898;52.102;5.776;2024-03-02T13:08:48;17.90;92.20
36990;DHT22;22898;52.102;5.776;2024-03-02T13:11:14;17.80;92.30
36990;DHT22;22898;52.102;5.776;2024-03-02T13:13:41;17.40;92.90
36990;DHT22;22898;52.102;5.776;2024-03-02T13:16:10;17.60;93.30
36990;DHT22;22898;52.102;5.776;2024-03-02T13:18:38;17.60;92.40
36990;DHT22;22898;52.102;5.776;2024-03-02T13:21:04;17.00;93.30
36990;DHT22;22898;52.102;5.776;2024-03-02T13:23:29;17.40;92.90
36990;DHT22;22898;52.102;5.776;2024-03-02T13:25:57;18.00;92.50
36990;DHT22;22898;52.102;5.776;2024-03-02T13:28:24;18.60;91.40
36990;DHT22;22898;52.102;5.776;2024-03-02T13:30:49;18.90;91.50
36990;DHT22;22898;52.102;5.776;2024-03-02T13:33:15;18.70;90.50
36990;DHT22;22898;52.102;5.776;2024-03-02T13:35:41;18.90;91.00
36990;DHT22;22898;52.102;5.776;2024-03-02T13:38:06;18.60;90.50
36990;DHT22;22898;52.102;5.776;2024-03-02T13:40:32;18.70;91.10
36990;DHT22;22898;52.102;5.776;2024-03-02T13:43:02;18.30;91.30
36990;DHT22;22898;52.102;5.776;2024-03-02T13:45:27;18.60;91.30
36990;DHT22;22898;52.102;5.776;2024-03-02T13:47:53;18.30;91.90
36990;DHT22;22898;52.102;5.776;2024-03-02T13:50:19;18.10;93.20
36990;DHT22;22898;52.102;5.776;2024-03-02T13:52:45;17.50;94.30
36990;DHT22;22898;52.102;5.776;2024-03-02T13:55:11;17.60;94.60
36990;DHT22;22898;52.102;5.776;2024-03-02T13:57:37;17.70;94.70
36990;DHT22;22898;52.102;5.776;2024-03-02T14:00:03;17.60;95.10
36990;DHT22;22898;52.102;5.776;2024-03-02T14:02:35;17.90;95.30
36990;DHT22;22898;52.102;5.776;2024-03-02T14:05:01;17.80;95.20
36990;DHT22;22898;52.102;5.776;2024-03-02T14:07:27;17.60;95.10
36990;DHT22;22898;52.102;5.776;2024-03-02T14:09:52;17.30;95.50
36990;DHT22;22898;52.102;5.776;2024-03-02T14:12:18;17.00;95.70
36990;DHT22;22898;52.102;5.776;2024-03-02T14:14:43;16.80;95.40
36990;DHT22;22898;52.102;5.776;2024-03-02T14:17:09;16.30;96.90
36990;DHT22;22898;52.102;5.776;2024-03-02T14:19:40;16.30;96.70
36990;DHT22;22898;52.102;5.776;2024-03-02T14:22:05;16.60;96.60
36990;DHT22;22898;52.102;5.776;2024-03-02T14:24:31;16.90;97.00
36990;DHT22;22898;52.102;5.776;2024-03-02T14:26:57;17.50;95.70
36990;DHT22;22898;52.102;5.776;2024-03-02T14:29:28;18.00;95.00
36990;DHT22;22898;52.102;5.776;2024-03-02T14:31:54;17.90;94.60
36990;DHT22;22898;52.102;5.776;2024-03-02T14:34:20;17.60;94.80
36990;DHT22;22898;52.102;5.776;2024-03-02T14:36:46;17.20;95.50
36990;DHT22;22898;52.102;5.776;2024-03-02T14:39:11;17.20;95.30
36990;DHT22;22898;52.102;5.776;2024-03-02T14:41:37;16.80;95.50
36990;DHT22;22898;52.102;5.776;2024-03-02T14:44:03;16.70;96.10
36990;DHT22;22898;52.102;5.776;2024-03-02T14:46:30;17.00;95.50
36990;DHT22;22898;52.102;5.776;2024-03-02T14:48:55;17.10;95.40
36990;DHT22;22898;52.102;5.776;2024-03-02T14:51:21;17.60;95.20
36990;DHT22;22898;52.102;5.776;2024-03-02T14:53:47;17.80;95.00
36990;DHT22;22898;52.102;5.776;2024-03-02T14:56:12;17.70;94.40
36990;DHT22;22898;52.102;5.776;2024-03-02T14:58:41;17.80;93.90
36990;DHT22;22898;52.102;5.776;2024-03-02T15:01:06;17.60;93.90
36990;DHT22;22898;52.102;5.776;2024-03-02T15:03:32;17.40;94.30
36990;DHT22;22898;52.102;5.776;2024-03-02T15:05:59;17.50;94.30
36990;DHT22;22898;52.102;5.776;2024-03-02T15:08:24;17.40;95.00
36990;DHT22;22898;52.102;5.776;2024-03-02T15:10:50;17.40;95.00
36990;DHT22;22898;52.102;5.776;2024-03-02T15:13:16;17.30;94.90
36990;DHT22;22898;52.102;5.776;2024-03-02T15:15:41;17.10;95.80
36990;DHT22;22898;52.102;5.776;2024-03-02T15:18:07;17.10;96.00
36990;DHT22;22898;52.102;5.776;2024-03-02T15:20:34;17.60;95.50
36990;DHT22;22898;52.102;5.776;2024-03-02T15:22:59;18.30;95.20
36990;DHT22;22898;52.102;5.776;2024-03-02T15:25:25;18.70;94.60
36990;DHT22;22898;52.102;5.776;2024-03-02T15:27:51;18.70;94.40
36990;DHT22;22898;52.102;5.776;2024-03-02T15:30:16;18.70;94.60
36990;DHT22;22898;52.102;5.776;2024-03-02T15:32:42;18.30;95.30
36990;DHT22;22898;52.102;5.776;2024-03-02T15:35:08;17.80;95.80
36990;DHT22;22898;52.102;5.776;2024-03-02T15:37:34;17.50;96.40